map of PUQ home
PUQ - Airport
Location
City:  Punta Arenas, Magallanes y de la Antártica Chilena, Chile
Name:Presidente Carlos Ibáñez del Campo International Airport
ICAO:SCCI
IATA:PUQ

Details
Type:Airport (Aerodrome, Airfield)
Use:Public/Civil, International (customs port of entry)
Latitude:53°00'13"S (-53.003610)
Longitude:70°51'13"W (-70.853610)
Elevation:139 ft (42 m)
Variation:13.11°E (WMM2015v2 magnetic declination)
-0.08° annual change
Runways:3
Longest:9154 × 197 ft (2790 × 60 m), paved

Time
Time Zone:UTC-4 (DST-3)
Local Time:

Weather
METAR:SCCI 041400Z 02006KT CAVOK 19/10 Q1010 NOSIG
TAF:SCCI 040421Z 0406/0506 25008KT CAVOK TN11/0409Z TX24/0419Z
TEMPO 0406/0409 9999 FEW015
BECMG 0416/0418 28012KT
BECMG 0422/0500 30007KT
TEMPO 0422/0500 VRB03KT

Related Locations
Nearby:
Farthest:UIUI: 12401 mi / 19957 km
Ust'-Barguzin, BU, RU

Find:

   beyond  
but within

Other Information
Maps:
NOTAMs:
Links:
Sources:

  
  • flag of Chile
  • flag of Magallanes y de la Antártica Chilena
  

Sectional Chart

Flight Planning
at skyvector.com

Satellite Image

Google Maps Satellite view

 

Copyright © 2004-2019 Karl L. Swartz. All rights reserved.
The Great Circle Mapper name and logo are trademarks of the Great Circle Mapper.
All other trademarks mentioned herein belong to their respective owners.
Please see credits for attibutions and further copyright information.

  Follow gcmap on Facebook Follow gcmap on Twitter GCmap on LinkedIn

hCard Microformat

Geo Microformat